Time;durP1;ratioP1;P1;durP2;ratioP2;P2;SDS_P1;SDS_P2;PMS_P1;PMS_P2;Temp;Humidity;BMP_temperature;BMP_pressure;BME280_temperature;BME280_humidity;BME280_pressure;Samples;Min_cycle;Max_cycle;Signal;HPM_P1;HPM_P2
2024/04/08 00:00:25;;;;;;;7.47;1.65;;;13.70;99.90;;;;;;5070879;28;20500;-72
2024/04/08 00:02:51;;;;;;;8.30;1.80;;;13.60;99.90;;;;;;5074216;28;20121;-72
2024/04/08 00:05:20;;;;;;;6.88;1.83;;;13.60;99.90;;;;;;5073467;28;20171;-72
2024/04/08 00:07:46;;;;;;;6.40;1.63;;;13.60;99.90;;;;;;5075011;28;20067;-72
2024/04/08 00:10:12;;;;;;;13.18;2.35;;;13.60;99.90;;;;;;5074638;28;20052;-72
2024/04/08 00:12:42;;;;;;;11.23;2.28;;;13.70;99.90;;;;;;5074684;28;20040;-69
2024/04/08 00:15:09;;;;;;;8.48;2.17;;;13.70;99.90;;;;;;5074048;28;20043;-69
2024/04/08 00:17:35;;;;;;;8.02;1.90;;;13.60;99.90;;;;;;5074500;28;20040;-69
2024/04/08 00:20:03;;;;;;;8.07;1.95;;;13.70;99.90;;;;;;5072768;28;20381;-72
2024/04/08 00:22:28;;;;;;;8.63;1.70;;;13.60;99.90;;;;;;5074691;28;20097;-70
2024/04/08 00:24:54;;;;;;;10.13;2.17;;;13.60;99.90;;;;;;5073724;28;20044;-70
2024/04/08 00:27:20;;;;;;;10.73;1.67;;;13.60;99.90;;;;;;5074568;28;20115;-70
2024/04/08 00:29:46;;;;;;;4.63;1.55;;;13.60;99.90;;;;;;5074250;28;20591;-70
2024/04/08 00:32:12;;;;;;;10.65;2.38;;;13.60;99.90;;;;;;5075042;28;20037;-70
2024/04/08 00:34:39;;;;;;;11.98;2.22;;;13.60;99.90;;;;;;5074004;28;20092;-70
2024/04/08 00:37:05;;;;;;;6.28;1.73;;;13.60;99.90;;;;;;5075309;28;20094;-70
2024/04/08 00:39:32;;;;;;;6.18;2.30;;;13.60;99.90;;;;;;5075040;28;20059;-70
2024/04/08 00:41:58;;;;;;;6.18;2.08;;;13.60;99.90;;;;;;5073895;28;20041;-70
2024/04/08 00:44:24;;;;;;;8.60;2.20;;;13.60;99.90;;;;;;5073277;28;20075;-70
2024/04/08 00:46:50;;;;;;;10.43;2.78;;;13.60;99.90;;;;;;5075115;28;20032;-70
2024/04/08 00:49:17;;;;;;;11.35;2.05;;;13.50;99.90;;;;;;5075050;28;20032;-70
2024/04/08 00:51:44;;;;;;;8.63;2.13;;;13.60;99.90;;;;;;5074844;28;20047;-70
2024/04/08 00:54:10;;;;;;;8.45;1.83;;;13.40;99.90;;;;;;5073995;28;20037;-70
2024/04/08 00:56:41;;;;;;;5.00;1.70;;;13.50;99.90;;;;;;5073577;28;20035;-70
2024/04/08 00:59:11;;;;;;;7.20;1.77;;;13.50;99.90;;;;;;5074410;28;20051;-70
2024/04/08 01:01:39;;;;;;;8.45;3.35;;;13.40;99.90;;;;;;5073895;28;20450;-70
2024/04/08 01:04:05;;;;;;;10.77;1.98;;;13.40;99.90;;;;;;5073855;28;20041;-70
2024/04/08 01:06:31;;;;;;;5.78;1.77;;;13.40;99.90;;;;;;5074522;28;20424;-70
2024/04/08 01:08:58;;;;;;;10.75;2.05;;;13.50;99.90;;;;;;5073964;28;20098;-70
2024/04/08 01:11:23;;;;;;;8.85;1.83;;;13.40;99.90;;;;;;5072457;28;20046;-70
2024/04/08 01:13:50;;;;;;;8.23;2.15;;;13.40;99.90;;;;;;5071891;28;20127;-70
2024/04/08 01:16:16;;;;;;;8.20;2.10;;;13.40;99.90;;;;;;5073435;28;20036;-70
2024/04/08 01:18:42;;;;;;;5.80;2.03;;;13.40;99.90;;;;;;5072482;28;20465;-70
2024/04/08 01:21:08;;;;;;;7.55;1.92;;;13.40;99.90;;;;;;5073522;28;20072;-70
2024/04/08 01:23:38;;;;;;;10.52;2.00;;;13.30;99.90;;;;;;5071587;28;20109;-70
2024/04/08 01:26:03;;;;;;;7.13;1.83;;;13.30;99.90;;;;;;5072079;28;20412;-70
2024/04/08 01:28:29;;;;;;;12.18;2.65;;;13.30;99.90;;;;;;5073514;28;20036;-70
2024/04/08 01:30:59;;;;;;;4.55;2.00;;;13.30;99.90;;;;;;5054991;28;20040;-70
2024/04/08 01:33:28;;;;;;;7.10;1.80;;;13.20;99.90;;;;;;5071581;28;20041;-70
2024/04/08 01:35:54;;;;;;;9.95;2.08;;;13.30;99.90;;;;;;5073083;28;20547;-70
2024/04/08 01:38:20;;;;;;;5.93;2.00;;;13.20;99.90;;;;;;5073147;28;20126;-70
2024/04/08 01:40:46;;;;;;;10.07;2.03;;;13.20;99.90;;;;;;5071611;28;20040;-70
2024/04/08 01:43:12;;;;;;;10.75;2.22;;;13.20;99.90;;;;;;5072470;28;20054;-70
2024/04/08 01:45:38;;;;;;;8.43;2.10;;;13.20;99.90;;;;;;5072766;28;20048;-69
2024/04/08 01:48:04;;;;;;;7.70;1.85;;;13.10;99.90;;;;;;5072830;28;20120;-69
2024/04/08 01:50:31;;;;;;;8.43;2.08;;;13.20;99.90;;;;;;5071320;28;20044;-70
2024/04/08 01:52:57;;;;;;;9.35;2.13;;;13.10;99.90;;;;;;5072206;28;20032;-70
2024/04/08 01:55:22;;;;;;;8.00;1.73;;;13.10;99.90;;;;;;5072860;28;20055;-70
2024/04/08 01:57:50;;;;;;;9.43;1.95;;;13.00;99.90;;;;;;5072689;28;20032;-70
2024/04/08 02:00:15;;;;;;;9.15;2.00;;;13.10;99.90;;;;;;5072585;28;20048;-70
2024/04/08 02:02:41;;;;;;;11.65;2.97;;;13.10;99.90;;;;;;5072813;28;20604;-69
2024/04/08 02:05:07;;;;;;;7.93;1.73;;;13.10;99.90;;;;;;5072203;28;20476;-69
2024/04/08 02:07:32;;;;;;;6.80;2.13;;;13.00;99.90;;;;;;5071318;28;20040;-69
2024/04/08 02:09:58;;;;;;;10.45;3.10;;;13.00;99.90;;;;;;5074096;28;20043;-69
2024/04/08 02:12:26;;;;;;;7.25;2.30;;;13.00;99.90;;;;;;5072173;28;20049;-70
2024/04/08 02:14:51;;;;;;;7.30;2.05;;;12.90;99.90;;;;;;5073684;28;20036;-70
2024/04/08 02:17:17;;;;;;;7.15;3.10;;;13.00;99.90;;;;;;5074060;28;20039;-70
2024/04/08 02:19:43;;;;;;;10.40;2.17;;;13.00;99.90;;;;;;5073550;28;20138;-70
2024/04/08 02:22:08;;;;;;;6.93;1.88;;;13.00;99.90;;;;;;5074154;28;20109;-69
2024/04/08 02:24:34;;;;;;;6.75;2.08;;;13.00;99.90;;;;;;5073110;28;20040;-69
2024/04/08 02:27:00;;;;;;;9.00;2.20;;;13.00;99.90;;;;;;5072776;28;20079;-69
2024/04/08 02:29:27;;;;;;;9.95;2.08;;;13.00;99.90;;;;;;5072537;28;20052;-70
2024/04/08 02:31:53;;;;;;;6.18;2.17;;;13.00;99.90;;;;;;5072388;28;20044;-69
2024/04/08 02:34:19;;;;;;;6.35;2.30;;;13.00;99.90;;;;;;5070379;28;20047;-69
2024/04/08 02:36:45;;;;;;;7.25;2.75;;;13.00;99.90;;;;;;5072009;28;20444;-69
2024/04/08 02:39:11;;;;;;;8.52;3.38;;;13.00;99.90;;;;;;5072154;28;20476;-69
2024/04/08 02:41:36;;;;;;;5.03;2.70;;;13.00;99.90;;;;;;5071713;28;20072;-69
2024/04/08 02:44:02;;;;;;;7.82;1.95;;;13.00;99.90;;;;;;5071844;28;20044;-69
2024/04/08 02:46:28;;;;;;;10.60;2.60;;;13.00;99.90;;;;;;5072010;28;20132;-69
2024/04/08 02:48:53;;;;;;;8.75;2.25;;;13.00;99.90;;;;;;5072005;28;20040;-70
2024/04/08 02:51:19;;;;;;;8.80;2.47;;;13.00;99.90;;;;;;5071747;28;20036;-70
2024/04/08 02:53:45;;;;;;;7.97;2.70;;;13.00;99.90;;;;;;5070045;28;20045;-71
2024/04/08 02:56:11;;;;;;;5.32;2.47;;;13.00;99.90;;;;;;5070500;28;20042;-71
2024/04/08 02:58:37;;;;;;;7.20;2.28;;;13.00;99.90;;;;;;5071999;28;20044;-70
2024/04/08 03:01:11;;;;;;;4.50;2.55;;;13.10;99.90;;;;;;5071677;28;20044;-70
2024/04/08 03:03:38;;;;;;;4.20;2.50;;;13.10;99.90;;;;;;5070226;28;20048;-70
2024/04/08 03:06:11;;;;;;;6.47;2.58;;;13.10;99.90;;;;;;5071779;28;20036;-70
2024/04/08 03:08:38;;;;;;;5.65;2.40;;;13.10;99.90;;;;;;5071554;28;20048;-70
2024/04/08 03:11:04;;;;;;;8.65;3.15;;;13.10;99.90;;;;;;5071329;28;20465;-70
2024/04/08 03:13:30;;;;;;;4.45;1.90;;;13.10;99.90;;;;;;5071213;28;20043;-70
2024/04/08 03:15:56;;;;;;;5.25;2.00;;;13.10;99.90;;;;;;5071739;28;20112;-70
2024/04/08 03:18:23;;;;;;;7.57;2.30;;;13.10;99.90;;;;;;5071610;28;20041;-70
2024/04/08 03:21:00;;;;;;;8.18;2.47;;;13.10;99.90;;;;;;5070266;28;20378;-70
2024/04/08 03:23:26;;;;;;;6.05;2.30;;;13.00;99.90;;;;;;5070825;28;20036;-70
2024/04/08 03:25:59;;;;;;;5.50;2.40;;;13.00;99.90;;;;;;5071678;28;20044;-70
2024/04/08 03:28:25;;;;;;;6.22;2.53;;;13.00;99.90;;;;;;5071603;28;20086;-70
2024/04/08 03:30:51;;;;;;;5.57;3.00;;;13.00;99.90;;;;;;5071119;28;20527;-70
2024/04/08 03:33:20;;;;;;;5.68;2.30;;;13.00;99.90;;;;;;5070945;28;20504;-70
2024/04/08 03:35:47;;;;;;;5.68;1.90;;;13.00;99.90;;;;;;5071966;28;20037;-70
2024/04/08 03:38:13;;;;;;;5.07;2.55;;;13.00;99.90;;;;;;5074097;28;20087;-70
2024/04/08 03:40:38;;;;;;;5.22;2.33;;;12.90;99.90;;;;;;5075276;28;20080;-70
2024/04/08 03:43:05;;;;;;;5.50;2.65;;;12.90;99.90;;;;;;5074808;28;20094;-70
2024/04/08 03:45:31;;;;;;;3.65;2.33;;;12.80;99.90;;;;;;5075288;28;20044;-70
2024/04/08 03:47:57;;;;;;;5.40;3.05;;;12.80;99.90;;;;;;5075265;28;20032;-70
2024/04/08 03:50:30;;;;;;;5.55;2.30;;;12.80;99.90;;;;;;5056810;28;20197;-70
2024/04/08 03:52:56;;;;;;;10.93;3.63;;;12.90;99.90;;;;;;5074693;28;20028;-70
2024/04/08 03:56:43;;;;;;;6.72;3.10;;;12.80;99.90;;;;;;5470225;25;20351;-70
2024/04/08 03:59:10;;;;;;;4.28;2.60;;;12.90;99.90;;;;;;5470123;26;20027;-69
2024/04/08 04:01:37;;;;;;;6.28;2.83;;;12.80;99.90;;;;;;5469321;26;20039;-69
2024/04/08 04:04:04;;;;;;;6.85;3.22;;;12.80;99.90;;;;;;5469423;26;20379;-70
2024/04/08 04:06:31;;;;;;;5.95;3.45;;;12.80;99.90;;;;;;5469719;26;20376;-70
2024/04/08 04:08:58;;;;;;;6.72;3.10;;;12.90;99.90;;;;;;5469681;26;20026;-70
2024/04/08 04:11:27;;;;;;;6.80;2.78;;;12.90;99.90;;;;;;5469505;26;20027;-70
2024/04/08 04:13:54;;;;;;;7.28;2.92;;;12.90;99.90;;;;;;5468505;26;20022;-69
2024/04/08 04:16:23;;;;;;;8.07;3.72;;;12.90;99.90;;;;;;5469375;26;20027;-69
2024/04/08 04:18:53;;;;;;;6.18;3.30;;;13.00;99.90;;;;;;5469414;26;20055;-70
2024/04/08 04:21:20;;;;;;;6.70;3.70;;;13.00;99.90;;;;;;5469266;26;20428;-69
2024/04/08 04:23:46;;;;;;;4.75;2.95;;;12.90;99.90;;;;;;5468376;26;20366;-70
2024/04/08 04:26:13;;;;;;;6.68;3.72;;;13.00;99.90;;;;;;5469658;26;20023;-70
2024/04/08 04:28:41;;;;;;;6.88;2.85;;;13.00;99.90;;;;;;5469248;26;20022;-70
2024/04/08 04:31:08;;;;;;;7.50;3.17;;;13.00;99.90;;;;;;5468748;26;20038;-70
2024/04/08 04:33:34;;;;;;;9.50;3.55;;;13.00;99.90;;;;;;5468486;26;20023;-70
2024/04/08 04:36:03;;;;;;;6.18;3.38;;;13.00;99.90;;;;;;5469169;26;20381;-70
2024/04/08 04:38:30;;;;;;;5.93;2.90;;;13.00;99.90;;;;;;5469027;26;20023;-70
2024/04/08 04:41:00;;;;;;;7.78;2.80;;;13.00;99.90;;;;;;5469211;26;20383;-70
2024/04/08 04:43:28;;;;;;;5.45;2.83;;;13.00;99.90;;;;;;5467006;26;20362;-70
2024/04/08 04:45:55;;;;;;;9.05;3.03;;;13.10;99.90;;;;;;5468836;26;20030;-70
2024/04/08 04:48:22;;;;;;;4.95;3.05;;;13.00;99.90;;;;;;5469033;26;20026;-70
2024/04/08 04:50:49;;;;;;;7.30;3.35;;;13.10;99.90;;;;;;5468514;26;20478;-70
2024/04/08 04:53:15;;;;;;;9.02;3.53;;;13.10;99.90;;;;;;5468051;26;20015;-70
2024/04/08 04:55:49;;;;;;;6.00;3.47;;;13.10;99.90;;;;;;5468623;26;20018;-70
2024/04/08 04:58:16;;;;;;;6.28;3.70;;;13.00;99.90;;;;;;5468759;26;20491;-70
2024/04/08 05:00:43;;;;;;;7.50;3.85;;;13.00;99.90;;;;;;5468288;26;20023;-70
2024/04/08 05:03:10;;;;;;;6.15;3.50;;;13.00;99.90;;;;;;5468024;26;20024;-70
2024/04/08 05:05:37;;;;;;;8.05;3.17;;;12.90;99.90;;;;;;5468338;26;20031;-70
2024/04/08 05:08:04;;;;;;;7.50;3.47;;;13.00;99.90;;;;;;5452439;26;20027;-70
2024/04/08 05:10:31;;;;;;;7.15;3.45;;;13.00;99.90;;;;;;5452879;26;20023;-70
2024/04/08 05:12:58;;;;;;;6.88;3.70;;;13.00;99.90;;;;;;5452597;26;20022;-70
2024/04/08 05:15:26;;;;;;;10.23;4.20;;;13.00;99.90;;;;;;5452843;26;20022;-70
2024/04/08 05:17:53;;;;;;;4.70;3.88;;;13.00;99.90;;;;;;5451758;26;20022;-71
2024/04/08 05:20:22;;;;;;;10.27;4.10;;;13.00;99.90;;;;;;5452532;26;20032;-70
2024/04/08 05:22:49;;;;;;;9.20;4.50;;;13.00;99.90;;;;;;5452764;26;20023;-70
2024/04/08 05:25:16;;;;;;;9.20;3.58;;;13.00;99.90;;;;;;5452695;26;20019;-70
2024/04/08 05:27:43;;;;;;;6.72;3.65;;;13.00;99.90;;;;;;5451443;26;20030;-70
2024/04/08 05:30:10;;;;;;;7.00;4.20;;;13.00;99.90;;;;;;5453195;26;20019;-70
2024/04/08 05:32:37;;;;;;;6.82;4.00;;;13.00;99.90;;;;;;5452718;26;20019;-70
2024/04/08 05:35:04;;;;;;;7.60;5.10;;;13.00;99.90;;;;;;5452059;26;20379;-70
2024/04/08 05:37:31;;;;;;;8.07;4.57;;;13.00;99.90;;;;;;5452383;26;20027;-70
2024/04/08 05:39:58;;;;;;;7.97;4.93;;;13.00;99.90;;;;;;5452595;26;20363;-70
2024/04/08 05:42:25;;;;;;;14.88;5.07;;;13.00;99.90;;;;;;5452732;26;20475;-71
2024/04/08 05:44:52;;;;;;;9.73;4.78;;;13.00;99.90;;;;;;5451842;26;20371;-70
2024/04/08 05:47:19;;;;;;;9.32;4.65;;;13.10;99.90;;;;;;5452467;26;20030;-70
2024/04/08 05:49:46;;;;;;;10.73;5.10;;;13.10;99.90;;;;;;5452762;26;20371;-70
2024/04/08 05:52:12;;;;;;;13.48;5.35;;;13.10;99.90;;;;;;5452684;26;20018;-70
2024/04/08 05:54:39;;;;;;;13.63;5.00;;;13.10;99.90;;;;;;5451949;21;20043;-68
2024/04/08 05:57:06;;;;;;;12.48;5.28;;;13.20;99.90;;;;;;5416508;26;20382;-68
2024/04/08 05:59:33;;;;;;;12.15;5.07;;;13.20;99.90;;;;;;5414333;26;20498;-68
2024/04/08 06:02:02;;;;;;;7.43;4.90;;;13.30;99.90;;;;;;5416578;26;20032;-68
2024/04/08 06:04:29;;;;;;;10.82;5.97;;;13.20;99.90;;;;;;5415796;26;20019;-68
2024/04/08 06:06:56;;;;;;;9.57;4.93;;;13.30;99.90;;;;;;5416313;26;20020;-68
2024/04/08 06:09:22;;;;;;;9.77;5.25;;;13.30;99.90;;;;;;5416321;26;20023;-68
2024/04/08 06:11:49;;;;;;;9.18;4.75;;;13.30;99.90;;;;;;5414965;26;20027;-68
2024/04/08 06:14:17;;;;;;;8.40;4.82;;;13.40;99.90;;;;;;5415650;26;20020;-68
2024/04/08 06:16:43;;;;;;;9.63;5.60;;;13.40;99.90;;;;;;5416013;26;20023;-67
2024/04/08 06:19:10;;;;;;;11.95;5.07;;;13.40;99.90;;;;;;5416013;26;20023;-68
2024/04/08 06:21:37;;;;;;;9.77;5.13;;;13.40;99.90;;;;;;5415710;26;20023;-68
2024/04/08 06:24:04;;;;;;;8.52;4.80;;;13.40;99.90;;;;;;5415888;26;20024;-68
2024/04/08 06:26:31;;;;;;;7.75;5.10;;;13.50;99.90;;;;;;5415644;26;20023;-68
2024/04/08 06:28:58;;;;;;;8.75;4.57;;;13.60;99.90;;;;;;5415378;26;20376;-68
2024/04/08 06:31:25;;;;;;;7.57;4.88;;;13.60;99.90;;;;;;5415178;26;20024;-68
2024/04/08 06:33:52;;;;;;;10.23;4.93;;;13.60;99.90;;;;;;5397367;26;20770;-69
2024/04/08 06:36:22;;;;;;;7.55;4.47;;;13.60;99.90;;;;;;5398936;26;20040;-69
2024/04/08 06:38:49;;;;;;;9.75;4.90;;;13.70;99.90;;;;;;5394536;26;20036;-69
2024/04/08 06:41:19;;;;;;;11.13;4.78;;;13.70;99.90;;;;;;5379790;26;20032;-69
2024/04/08 06:43:46;;;;;;;9.18;3.95;;;13.70;99.90;;;;;;5391224;26;20028;-69
2024/04/08 06:46:13;;;;;;;7.05;4.68;;;13.80;99.90;;;;;;5396069;26;20027;-68
2024/04/08 06:48:40;;;;;;;8.15;4.65;;;13.80;99.90;;;;;;5408420;26;20043;-69
2024/04/08 06:51:06;;;;;;;7.82;4.55;;;13.80;99.90;;;;;;5415183;26;20031;-69
2024/04/08 06:53:33;;;;;;;7.70;5.07;;;13.80;99.90;;;;;;5414693;26;20385;-69
2024/04/08 06:56:00;;;;;;;7.32;4.63;;;13.80;99.90;;;;;;5413852;26;20015;-70
2024/04/08 06:58:27;;;;;;;7.43;4.43;;;13.80;99.90;;;;;;5415263;26;20023;-71
2024/04/08 07:00:54;;;;;;;7.97;4.95;;;13.80;99.90;;;;;;5415115;26;20039;-69
2024/04/08 07:03:22;;;;;;;9.30;4.32;;;13.80;99.90;;;;;;5414658;26;20015;-69
2024/04/08 07:05:49;;;;;;;8.95;5.43;;;13.80;99.90;;;;;;5415002;26;20388;-70
2024/04/08 07:08:18;;;;;;;8.93;4.70;;;13.80;99.90;;;;;;5414541;26;20487;-70
2024/04/08 07:10:45;;;;;;;9.30;4.05;;;13.80;99.90;;;;;;5414868;26;20023;-68
2024/04/08 07:13:12;;;;;;;9.82;4.97;;;13.80;99.90;;;;;;5414685;26;20563;-69
2024/04/08 07:15:39;;;;;;;6.68;4.35;;;13.80;99.90;;;;;;5414753;26;20507;-69
2024/04/08 07:18:06;;;;;;;6.53;3.97;;;13.90;99.90;;;;;;5415054;26;20032;-69
2024/04/08 07:20:34;;;;;;;9.60;5.07;;;13.90;99.90;;;;;;5414802;26;20016;-70
2024/04/08 07:23:01;;;;;;;7.30;4.78;;;13.90;99.90;;;;;;5414029;26;20504;-71
2024/04/08 07:25:27;;;;;;;11.68;4.38;;;13.90;99.90;;;;;;5413757;26;20027;-71
2024/04/08 07:27:55;;;;;;;11.10;4.60;;;13.90;99.90;;;;;;5413275;26;20020;-72
2024/04/08 07:30:21;;;;;;;7.30;4.60;;;14.00;99.90;;;;;;5412410;26;20370;-71
2024/04/08 07:32:48;;;;;;;9.55;5.00;;;13.90;99.90;;;;;;5413287;26;20028;-71
2024/04/08 07:35:20;;;;;;;6.35;3.88;;;13.90;99.90;;;;;;5412791;26;20024;-72
2024/04/08 07:37:48;;;;;;;6.25;4.00;;;13.90;99.90;;;;;;5402807;26;20032;-71
2024/04/08 07:40:14;;;;;;;5.85;4.38;;;13.90;99.90;;;;;;5396195;26;20043;-71
2024/04/08 07:42:42;;;;;;;5.93;4.03;;;13.90;99.90;;;;;;5397554;26;20032;-71
2024/04/08 07:45:09;;;;;;;10.63;4.47;;;13.90;99.90;;;;;;5393801;26;20044;-71
2024/04/08 07:47:36;;;;;;;10.38;4.03;;;13.90;99.90;;;;;;5387164;26;20032;-72
2024/04/08 07:50:05;;;;;;;7.68;5.00;;;13.90;99.90;;;;;;5397868;26;20036;-71
2024/04/08 07:52:36;;;;;;;7.15;3.97;;;13.90;99.90;;;;;;5410477;26;20031;-72
2024/04/08 07:55:04;;;;;;;7.22;4.25;;;14.00;99.90;;;;;;5413821;26;20032;-72
2024/04/08 07:57:32;;;;;;;8.68;4.43;;;14.10;99.90;;;;;;5393353;26;20043;-72
2024/04/08 07:59:59;;;;;;;10.00;4.53;;;14.10;99.90;;;;;;5407173;26;20491;-71
2024/04/08 08:02:27;;;;;;;7.28;4.80;;;14.20;99.90;;;;;;5400844;26;20394;-72
2024/04/08 08:04:55;;;;;;;8.77;4.70;;;14.30;99.90;;;;;;5402691;26;20031;-71
2024/04/08 08:07:22;;;;;;;9.88;4.70;;;14.30;99.90;;;;;;5399629;26;20040;-72
2024/04/08 08:09:49;;;;;;;8.02;4.95;;;14.40;99.90;;;;;;5403520;26;20028;-72
2024/04/08 08:12:17;;;;;;;8.75;5.28;;;14.50;99.90;;;;;;5399053;26;20033;-71
2024/04/08 08:14:46;;;;;;;10.55;5.50;;;14.50;99.90;;;;;;5401610;26;20031;-71
2024/04/08 08:17:13;;;;;;;7.47;5.07;;;14.60;99.90;;;;;;5398899;26;20036;-72
2024/04/08 08:19:40;;;;;;;9.45;6.03;;;14.70;99.90;;;;;;5409906;26;20514;-72
2024/04/08 08:22:07;;;;;;;7.70;5.57;;;14.80;99.90;;;;;;5413839;26;20019;-72
2024/04/08 08:24:35;;;;;;;6.25;4.82;;;14.90;99.90;;;;;;5413361;26;20019;-72
2024/04/08 08:27:02;;;;;;;7.72;5.15;;;15.00;99.90;;;;;;5414311;26;20026;-72
2024/04/08 08:29:29;;;;;;;10.85;5.60;;;15.20;99.90;;;;;;5413634;26;20471;-72
2024/04/08 08:31:56;;;;;;;9.15;5.82;;;15.30;99.90;;;;;;5414127;26;20019;-71
2024/04/08 08:34:23;;;;;;;9.32;5.63;;;15.50;99.90;;;;;;5413340;26;20025;-71
2024/04/08 08:36:50;;;;;;;9.25;5.65;;;15.60;99.90;;;;;;5413874;26;20027;-74
2024/04/08 08:39:17;;;;;;;11.05;5.18;;;15.70;99.90;;;;;;5411902;26;20028;-76
2024/04/08 08:41:52;;;;;;;7.28;5.03;;;16.00;99.90;;;;;;5411320;26;20028;-76
2024/04/08 08:44:20;;;;;;;10.32;5.63;;;16.40;99.90;;;;;;5414658;26;20019;-76
2024/04/08 08:46:48;;;;;;;6.20;4.90;;;16.60;99.90;;;;;;5415683;26;20028;-76
2024/04/08 08:49:20;;;;;;;6.22;4.75;;;17.00;99.90;;;;;;5415476;26;20019;-76
2024/04/08 08:51:47;;;;;;;6.40;4.45;;;17.30;99.90;;;;;;5417481;26;20019;-75
2024/04/08 08:54:14;;;;;;;7.32;5.15;;;17.40;99.90;;;;;;5416622;26;20021;-76
2024/04/08 08:56:41;;;;;;;8.27;5.20;;;17.60;99.90;;;;;;5417059;26;20036;-76
2024/04/08 08:59:10;;;;;;;12.57;4.57;;;17.60;99.90;;;;;;5409667;26;20031;-76
2024/04/08 09:01:37;;;;;;;10.18;5.28;;;17.60;99.90;;;;;;5412152;26;20104;-76
2024/04/08 09:04:05;;;;;;;9.68;5.82;;;17.50;99.90;;;;;;5415640;26;20767;-76
2024/04/08 09:06:33;;;;;;;8.10;4.80;;;17.40;99.90;;;;;;5416842;26;20031;-75
2024/04/08 09:09:00;;;;;;;10.52;5.70;;;17.80;99.90;;;;;;5404080;26;20388;-76
2024/04/08 09:11:27;;;;;;;8.73;5.13;;;17.90;99.90;;;;;;5398514;26;20036;-75
2024/04/08 09:14:06;;;;;;;10.52;5.75;;;18.00;99.90;;;;;;5395076;26;20028;-75
2024/04/08 09:16:33;;;;;;;13.60;5.28;;;18.10;99.90;;;;;;5381951;26;20367;-75
2024/04/08 09:19:01;;;;;;;8.63;4.95;;;18.10;99.90;;;;;;5381567;26;20032;-75
2024/04/08 09:21:28;;;;;;;8.35;5.65;;;18.20;99.90;;;;;;5381242;26;20036;-76
2024/04/08 09:24:05;;;;;;;7.82;4.45;;;18.20;99.90;;;;;;5380616;26;20371;-75
2024/04/08 09:26:33;;;;;;;9.38;5.38;;;18.30;99.90;;;;;;5413015;26;20040;-75
2024/04/08 09:29:01;;;;;;;8.18;5.18;;;18.40;99.90;;;;;;5416149;26;20035;-75
2024/04/08 09:31:28;;;;;;;9.18;5.70;;;18.50;99.90;;;;;;5415423;26;20375;-75
2024/04/08 09:33:56;;;;;;;9.98;5.47;;;18.40;99.90;;;;;;5413553;26;20035;-75
2024/04/08 09:36:23;;;;;;;10.30;5.78;;;18.40;99.90;;;;;;5414580;26;20023;-75
2024/04/08 09:38:52;;;;;;;11.25;6.88;;;18.60;99.90;;;;;;5415532;26;20027;-75
2024/04/08 09:41:21;;;;;;;9.90;5.78;;;18.50;99.90;;;;;;5415438;26;20027;-75
2024/04/08 09:43:48;;;;;;;12.52;6.07;;;18.40;99.90;;;;;;5439793;26;20024;-75
2024/04/08 09:46:16;;;;;;;8.00;5.78;;;18.50;99.90;;;;;;5416409;26;20376;-76
2024/04/08 09:48:44;;;;;;;8.93;6.28;;;18.50;99.90;;;;;;5416698;26;20032;-75
2024/04/08 09:51:13;;;;;;;12.75;6.72;;;18.40;99.90;;;;;;5414434;26;20376;-76
2024/04/08 09:53:40;;;;;;;11.68;5.53;;;18.30;99.90;;;;;;5413206;26;20023;-76
2024/04/08 09:56:15;;;;;;;9.18;6.47;;;18.30;99.90;;;;;;5416484;26;20028;-76
2024/04/08 09:58:59;;;;;;;10.10;5.18;;;18.40;99.90;;;;;;5416468;26;20020;-76
2024/04/08 10:01:26;;;;;;;11.00;6.57;;;18.40;99.90;;;;;;5416040;26;20383;-76
2024/04/08 10:03:57;;;;;;;7.70;5.50;;;18.40;99.90;;;;;;5415801;26;20539;-78
2024/04/08 10:06:25;;;;;;;9.57;6.15;;;18.40;99.90;;;;;;5416611;26;20020;-76
2024/04/08 10:08:53;;;;;;;21.38;11.23;;;18.60;99.90;;;;;;5416546;26;20031;-76
2024/04/08 10:11:20;;;;;;;11.55;5.63;;;18.60;99.90;;;;;;5416161;26;20374;-76
2024/04/08 10:13:48;;;;;;;8.40;5.47;;;18.60;99.90;;;;;;5415774;26;20028;-76
2024/04/08 10:16:17;;;;;;;9.10;5.93;;;18.70;99.90;;;;;;5416073;26;20335;-76
2024/04/08 10:18:51;;;;;;;9.00;6.03;;;18.70;99.90;;;;;;5416040;26;20479;-76
2024/04/08 10:21:23;;;;;;;9.45;5.20;;;18.70;99.90;;;;;;5415639;26;20043;-76
2024/04/08 10:23:54;;;;;;;24.13;8.17;;;18.70;99.90;;;;;;5413813;26;20020;-76
2024/04/08 10:26:26;;;;;;;12.73;5.53;;;18.60;99.90;;;;;;5416158;26;20270;-76
2024/04/08 10:28:53;;;;;;;13.13;6.47;;;18.50;99.90;;;;;;5416409;26;20032;-76
2024/04/08 10:31:26;;;;;;;8.05;5.07;;;18.40;99.90;;;;;;5414030;26;20032;-76
2024/04/08 10:33:53;;;;;;;7.32;4.85;;;18.30;99.90;;;;;;5415628;26;20032;-75
2024/04/08 10:36:21;;;;;;;6.25;4.43;;;18.20;99.90;;;;;;5414169;26;20027;-76
2024/04/08 10:38:49;;;;;;;8.95;4.65;;;18.30;99.90;;;;;;5414119;26;20379;-75
2024/04/08 10:41:15;;;;;;;6.90;4.97;;;18.20;99.90;;;;;;5413759;26;20102;-75
2024/04/08 10:43:42;;;;;;;7.97;4.35;;;18.30;99.90;;;;;;5414882;26;20023;-76
2024/04/08 10:46:17;;;;;;;6.63;3.97;;;18.50;99.90;;;;;;5415981;26;20019;-75
2024/04/08 10:48:44;;;;;;;5.88;3.33;;;18.60;99.90;;;;;;5415404;26;20032;-75
2024/04/08 10:51:16;;;;;;;8.20;3.67;;;18.60;99.90;;;;;;5410019;26;20031;-75
2024/04/08 10:53:43;;;;;;;5.03;2.53;;;18.50;99.90;;;;;;5398584;26;20027;-76
2024/04/08 10:56:10;;;;;;;6.88;4.35;;;18.60;99.90;;;;;;5415497;26;20035;-75
2024/04/08 10:58:36;;;;;;;5.65;3.20;;;18.60;99.90;;;;;;5398873;26;20023;-75
2024/04/08 11:01:04;;;;;;;6.45;3.45;;;18.60;99.90;;;;;;5415508;26;20023;-75
2024/04/08 11:03:31;;;;;;;7.20;3.15;;;18.60;99.90;;;;;;5414860;26;20015;-76
2024/04/08 11:05:58;;;;;;;5.60;3.47;;;18.60;99.90;;;;;;5414360;26;20023;-75
2024/04/08 11:08:27;;;;;;;9.55;4.15;;;18.60;99.90;;;;;;5415560;26;20024;-75
2024/04/08 11:10:59;;;;;;;8.18;4.30;;;18.60;99.90;;;;;;5414427;26;20491;-76
2024/04/08 11:13:27;;;;;;;6.40;2.97;;;18.60;99.90;;;;;;5397824;26;20024;-75
2024/04/08 11:15:54;;;;;;;6.18;2.88;;;18.70;99.90;;;;;;5415473;26;20028;-75
2024/04/08 11:18:21;;;;;;;5.68;3.22;;;18.80;99.90;;;;;;5413297;26;20474;-75
2024/04/08 11:20:49;;;;;;;5.53;3.95;;;18.80;99.90;;;;;;5412959;26;20019;-75
2024/04/08 11:23:19;;;;;;;4.53;3.58;;;18.70;99.90;;;;;;5412732;26;20369;-75
2024/04/08 11:25:47;;;;;;;6.57;4.47;;;18.40;99.90;;;;;;5414349;26;20024;-75
2024/04/08 11:28:14;;;;;;;5.60;2.97;;;18.60;99.90;;;;;;5413440;26;20039;-76
2024/04/08 11:30:43;;;;;;;5.43;3.28;;;18.70;99.90;;;;;;5412872;26;20028;-75
2024/04/08 11:33:10;;;;;;;9.20;3.60;;;18.70;99.90;;;;;;5414424;26;20023;-75
2024/04/08 11:35:37;;;;;;;5.05;2.47;;;18.70;99.90;;;;;;5414924;26;20020;-74
2024/04/08 11:38:05;;;;;;;7.22;2.63;;;18.60;99.90;;;;;;5414857;26;20510;-75
2024/04/08 11:40:31;;;;;;;4.70;2.65;;;18.60;99.90;;;;;;5414685;26;20016;-75
2024/04/08 11:42:58;;;;;;;6.00;2.03;;;18.60;99.90;;;;;;5414343;26;20019;-75
2024/04/08 11:45:28;;;;;;;4.60;1.70;;;18.60;99.90;;;;;;5414568;26;20015;-75
2024/04/08 11:47:54;;;;;;;4.68;2.03;;;18.70;99.90;;;;;;5414882;26;20039;-75
2024/04/08 11:50:21;;;;;;;5.28;2.20;;;18.70;99.90;;;;;;5414381;26;20487;-75
2024/04/08 11:52:48;;;;;;;3.40;2.03;;;18.60;99.90;;;;;;5414867;26;20020;-75
2024/04/08 11:55:15;;;;;;;4.05;1.73;;;18.60;99.90;;;;;;5414256;26;20020;-75
2024/04/08 11:57:42;;;;;;;9.45;2.72;;;18.70;99.90;;;;;;5414516;26;20028;-75
2024/04/08 12:00:12;;;;;;;3.25;1.85;;;18.70;99.90;;;;;;5414187;26;20039;-75
2024/04/08 12:02:39;;;;;;;3.90;1.88;;;18.60;99.90;;;;;;5414511;26;20031;-75
2024/04/08 12:05:06;;;;;;;5.15;1.85;;;18.80;99.90;;;;;;5413647;26;20367;-75
2024/04/08 12:07:32;;;;;;;3.33;1.60;;;18.70;99.90;;;;;;5414321;26;20019;-77
2024/04/08 12:09:59;;;;;;;5.10;2.00;;;18.80;99.90;;;;;;5414326;26;20370;-76
2024/04/08 12:12:27;;;;;;;2.97;1.48;;;18.90;99.90;;;;;;5414116;26;20380;-75
2024/04/08 12:14:54;;;;;;;4.63;1.35;;;19.00;99.90;;;;;;5413945;26;20019;-75
2024/04/08 12:17:21;;;;;;;2.85;1.38;;;19.00;99.90;;;;;;5417414;26;20023;-75
2024/04/08 12:19:48;;;;;;;2.53;1.23;;;18.90;99.90;;;;;;5415353;26;20020;-76
2024/04/08 12:22:17;;;;;;;4.55;1.55;;;18.90;99.90;;;;;;5417546;26;20019;-77
2024/04/08 12:24:44;;;;;;;4.10;1.20;;;18.80;99.90;;;;;;5417351;26;20027;-75
2024/04/08 12:27:11;;;;;;;3.97;1.45;;;18.70;99.90;;;;;;5417511;26;20023;-76
2024/04/08 12:29:38;;;;;;;3.28;1.42;;;18.60;99.90;;;;;;5417481;26;20023;-74
2024/04/08 12:32:05;;;;;;;3.95;1.30;;;18.60;99.90;;;;;;5417601;26;20023;-75
2024/04/08 12:34:32;;;;;;;2.75;1.38;;;18.60;99.90;;;;;;5416881;26;20020;-75
2024/04/08 12:37:00;;;;;;;3.97;1.27;;;18.60;99.90;;;;;;5417409;26;20019;-76
2024/04/08 12:39:26;;;;;;;2.58;1.15;;;18.70;99.90;;;;;;5416900;26;20368;-77
2024/04/08 12:41:53;;;;;;;4.30;1.30;;;18.70;99.90;;;;;;5415865;26;20031;-76
2024/04/08 12:44:20;;;;;;;3.40;1.58;;;18.70;99.90;;;;;;5416427;26;20476;-77
2024/04/08 12:46:48;;;;;;;2.92;1.08;;;18.80;99.90;;;;;;5417593;26;20019;-74